sensor_id;sensor_type;location;lat;lon;timestamp;pressure;altitude;pressure_sealevel;temperature;humidity
56241;BME280;42155;53.096;23.226;2023-11-21T00:01:37;99497.47;;;-1.60;71.28
56241;BME280;42155;53.096;23.226;2023-11-21T00:03:37;99479.53;;;-1.67;71.14
56241;BME280;42155;53.096;23.226;2023-11-21T00:05:38;99438.75;;;-1.89;71.09
56241;BME280;42155;53.096;23.226;2023-11-21T00:07:38;99489.91;;;-1.66;70.90
56241;BME280;42155;53.096;23.226;2023-11-21T00:09:38;99504.94;;;-1.50;71.02
56241;BME280;42155;53.096;23.226;2023-11-21T00:11:39;99509.03;;;-1.45;70.80
56241;BME280;42155;53.096;23.226;2023-11-21T00:13:39;99502.06;;;-1.44;70.50
56241;BME280;42155;53.096;23.226;2023-11-21T00:15:39;99509.09;;;-1.46;70.63
56241;BME280;42155;53.096;23.226;2023-11-21T00:17:40;99506.44;;;-1.45;70.86
56241;BME280;42155;53.096;23.226;2023-11-21T00:19:40;99516.25;;;-1.51;71.17
56241;BME280;42155;53.096;23.226;2023-11-21T00:21:41;99513.69;;;-1.53;71.09
56241;BME280;42155;53.096;23.226;2023-11-21T00:23:41;99514.03;;;-1.62;71.05
56241;BME280;42155;53.096;23.226;2023-11-21T00:25:41;99518.84;;;-1.51;71.17
56241;BME280;42155;53.096;23.226;2023-11-21T00:27:42;99509.28;;;-1.51;70.88
56241;BME280;42155;53.096;23.226;2023-11-21T00:29:42;99527.25;;;-1.45;70.65
56241;BME280;42155;53.096;23.226;2023-11-21T00:31:43;99531.63;;;-1.45;70.66
56241;BME280;42155;53.096;23.226;2023-11-21T00:33:43;99523.63;;;-1.41;70.44
56241;BME280;42155;53.096;23.226;2023-11-21T00:35:44;99478.84;;;-1.71;70.90
56241;BME280;42155;53.096;23.226;2023-11-21T00:37:44;99526.97;;;-1.37;70.45
56241;BME280;42155;53.096;23.226;2023-11-21T00:39:44;99533.09;;;-1.38;70.50
56241;BME280;42155;53.096;23.226;2023-11-21T00:41:45;99530.66;;;-1.43;70.30
56241;BME280;42155;53.096;23.226;2023-11-21T00:43:45;99538.66;;;-1.47;70.96
56241;BME280;42155;53.096;23.226;2023-11-21T00:45:45;99537.06;;;-1.51;71.13
56241;BME280;42155;53.096;23.226;2023-11-21T00:47:46;99541.13;;;-1.44;70.61
56241;BME280;42155;53.096;23.226;2023-11-21T00:49:46;99550.41;;;-1.37;70.51
56241;BME280;42155;53.096;23.226;2023-11-21T00:51:46;99545.78;;;-1.31;70.88
56241;BME280;42155;53.096;23.226;2023-11-21T00:53:47;99493.75;;;-1.52;70.63
56241;BME280;42155;53.096;23.226;2023-11-21T00:55:48;99538.47;;;-1.21;70.54
56241;BME280;42155;53.096;23.226;2023-11-21T00:57:48;99502.63;;;-1.36;70.12
56241;BME280;42155;53.096;23.226;2023-11-21T00:59:48;99522.63;;;-1.15;69.84
56241;BME280;42155;53.096;23.226;2023-11-21T01:01:49;99525.09;;;-1.12;69.83
56241;BME280;42155;53.096;23.226;2023-11-21T01:03:49;99515.59;;;-1.13;69.77
56241;BME280;42155;53.096;23.226;2023-11-21T01:05:49;99496.03;;;-1.23;70.00
56241;BME280;42155;53.096;23.226;2023-11-21T01:07:50;99521.09;;;-1.20;69.75
56241;BME280;42155;53.096;23.226;2023-11-21T01:09:50;99528.38;;;-1.29;70.28
56241;BME280;42155;53.096;23.226;2023-11-21T01:11:50;99474.31;;;-1.66;70.21
56241;BME280;42155;53.096;23.226;2023-11-21T01:13:50;99532.00;;;-1.33;70.35
56241;BME280;42155;53.096;23.226;2023-11-21T01:15:51;99538.34;;;-1.40;70.26
56241;BME280;42155;53.096;23.226;2023-11-21T01:17:52;99533.13;;;-1.40;70.67
56241;BME280;42155;53.096;23.226;2023-11-21T01:19:52;99537.13;;;-1.31;70.74
56241;BME280;42155;53.096;23.226;2023-11-21T01:21:52;99535.34;;;-1.29;70.09
56241;BME280;42155;53.096;23.226;2023-11-21T01:23:53;99541.31;;;-1.27;70.29
56241;BME280;42155;53.096;23.226;2023-11-21T01:25:55;99549.78;;;-1.22;70.42
56241;BME280;42155;53.096;23.226;2023-11-21T01:27:56;99502.03;;;-1.43;70.10
56241;BME280;42155;53.096;23.226;2023-11-21T01:29:56;99473.28;;;-1.62;70.45
56241;BME280;42155;53.096;23.226;2023-11-21T01:31:56;99495.19;;;-1.45;70.28
56241;BME280;42155;53.096;23.226;2023-11-21T01:33:57;99459.53;;;-1.65;70.12
56241;BME280;42155;53.096;23.226;2023-11-21T01:35:57;99518.66;;;-1.25;70.00
56241;BME280;42155;53.096;23.226;2023-11-21T01:37:57;99487.31;;;-1.44;70.38
56241;BME280;42155;53.096;23.226;2023-11-21T01:39:58;99510.19;;;-1.30;70.49
56241;BME280;42155;53.096;23.226;2023-11-21T01:41:59;99516.03;;;-1.23;69.90
56241;BME280;42155;53.096;23.226;2023-11-21T01:43:59;99523.00;;;-1.24;70.35
56241;BME280;42155;53.096;23.226;2023-11-21T01:46:00;99535.88;;;-1.21;70.15
56241;BME280;42155;53.096;23.226;2023-11-21T01:48:00;99531.31;;;-1.16;70.41
56241;BME280;42155;53.096;23.226;2023-11-21T01:50:03;99526.06;;;-1.14;69.73
56241;BME280;42155;53.096;23.226;2023-11-21T01:52:03;99524.19;;;-1.11;69.58
56241;BME280;42155;53.096;23.226;2023-11-21T01:54:04;99510.75;;;-1.22;69.86
56241;BME280;42155;53.096;23.226;2023-11-21T01:56:05;99526.06;;;-1.14;69.50
56241;BME280;42155;53.096;23.226;2023-11-21T01:58:06;99529.88;;;-1.23;70.34
56241;BME280;42155;53.096;23.226;2023-11-21T02:00:07;99512.28;;;-1.38;70.29
56241;BME280;42155;53.096;23.226;2023-11-21T02:02:08;99490.81;;;-1.45;70.03
56241;BME280;42155;53.096;23.226;2023-11-21T02:04:08;99521.59;;;-1.33;69.92
56241;BME280;42155;53.096;23.226;2023-11-21T02:06:08;99530.78;;;-1.24;69.78
56241;BME280;42155;53.096;23.226;2023-11-21T02:08:09;99535.88;;;-1.21;70.06
56241;BME280;42155;53.096;23.226;2023-11-21T02:10:09;99536.66;;;-1.19;70.34
56241;BME280;42155;53.096;23.226;2023-11-21T02:12:10;99506.81;;;-1.32;69.60
56241;BME280;42155;53.096;23.226;2023-11-21T02:14:10;99533.09;;;-1.16;69.29
56241;BME280;42155;53.096;23.226;2023-11-21T02:16:10;99529.78;;;-1.20;69.45
56241;BME280;42155;53.096;23.226;2023-11-21T02:18:11;99539.28;;;-1.19;69.41
56241;BME280;42155;53.096;23.226;2023-11-21T02:20:12;99516.66;;;-1.40;69.69
56241;BME280;42155;53.096;23.226;2023-11-21T02:22:13;99521.41;;;-1.28;70.05
56241;BME280;42155;53.096;23.226;2023-11-21T02:24:14;99537.69;;;-1.23;69.99
56241;BME280;42155;53.096;23.226;2023-11-21T02:26:14;99546.09;;;-1.16;69.73
56241;BME280;42155;53.096;23.226;2023-11-21T02:28:14;99542.78;;;-1.20;69.40
56241;BME280;42155;53.096;23.226;2023-11-21T02:30:15;99549.44;;;-1.13;69.62
56241;BME280;42155;53.096;23.226;2023-11-21T02:32:16;99519.56;;;-1.26;69.51
56241;BME280;42155;53.096;23.226;2023-11-21T02:34:17;99520.03;;;-1.15;69.58
56241;BME280;42155;53.096;23.226;2023-11-21T02:36:18;99552.22;;;-0.95;69.30
56241;BME280;42155;53.096;23.226;2023-11-21T02:38:18;99553.00;;;-0.93;69.35
56241;BME280;42155;53.096;23.226;2023-11-21T02:40:19;99556.34;;;-0.90;69.39
56241;BME280;42155;53.096;23.226;2023-11-21T02:42:19;99568.53;;;-0.90;69.17
56241;BME280;42155;53.096;23.226;2023-11-21T02:44:19;99539.75;;;-1.09;69.10
56241;BME280;42155;53.096;23.226;2023-11-21T02:46:20;99562.09;;;-1.04;69.63
56241;BME280;42155;53.096;23.226;2023-11-21T02:48:20;99556.16;;;-1.07;69.76
56241;BME280;42155;53.096;23.226;2023-11-21T02:50:20;99533.25;;;-1.21;69.23
56241;BME280;42155;53.096;23.226;2023-11-21T02:52:21;99524.59;;;-1.21;69.68
56241;BME280;42155;53.096;23.226;2023-11-21T02:54:21;99560.81;;;-0.93;69.55
56241;BME280;42155;53.096;23.226;2023-11-21T02:56:21;99566.66;;;-0.87;69.27
56241;BME280;42155;53.096;23.226;2023-11-21T02:58:22;99541.75;;;-0.94;69.25
56241;BME280;42155;53.096;23.226;2023-11-21T03:00:22;99533.34;;;-1.00;69.39
56241;BME280;42155;53.096;23.226;2023-11-21T03:02:22;99581.06;;;-0.78;68.75
56241;BME280;42155;53.096;23.226;2023-11-21T03:04:23;99565.91;;;-0.90;69.11
56241;BME280;42155;53.096;23.226;2023-11-21T03:06:23;99576.69;;;-0.99;69.12
56241;BME280;42155;53.096;23.226;2023-11-21T03:08:24;99571.84;;;-1.09;69.55
56241;BME280;42155;53.096;23.226;2023-11-21T03:10:24;99570.25;;;-1.13;69.43
56241;BME280;42155;53.096;23.226;2023-11-21T03:12:24;99591.56;;;-1.01;69.23
56241;BME280;42155;53.096;23.226;2023-11-21T03:14:24;99582.69;;;-0.97;69.41
56241;BME280;42155;53.096;23.226;2023-11-21T03:16:25;99584.56;;;-1.01;68.79
56241;BME280;42155;53.096;23.226;2023-11-21T03:18:25;99592.56;;;-1.06;69.19
56241;BME280;42155;53.096;23.226;2023-11-21T03:20:25;99592.56;;;-1.06;69.25
56241;BME280;42155;53.096;23.226;2023-11-21T03:22:26;99595.94;;;-1.04;69.51
56241;BME280;42155;53.096;23.226;2023-11-21T03:24:26;99593.41;;;-1.05;69.26
56241;BME280;42155;53.096;23.226;2023-11-21T03:26:26;99599.03;;;-0.94;68.82
56241;BME280;42155;53.096;23.226;2023-11-21T03:28:27;99592.81;;;-0.90;69.31
56241;BME280;42155;53.096;23.226;2023-11-21T03:30:27;99600.25;;;-0.81;68.65
56241;BME280;42155;53.096;23.226;2023-11-21T03:32:28;99608.72;;;-0.75;68.96
56241;BME280;42155;53.096;23.226;2023-11-21T03:34:28;99599.78;;;-0.68;69.01
56241;BME280;42155;53.096;23.226;2023-11-21T03:36:28;99605.69;;;-0.65;68.33
56241;BME280;42155;53.096;23.226;2023-11-21T03:38:29;99604.91;;;-0.67;67.98
56241;BME280;42155;53.096;23.226;2023-11-21T03:40:29;99593.28;;;-0.80;68.54
56241;BME280;42155;53.096;23.226;2023-11-21T03:42:29;99585.63;;;-0.83;68.13
56241;BME280;42155;53.096;23.226;2023-11-21T03:44:30;99618.97;;;-0.71;68.75
56241;BME280;42155;53.096;23.226;2023-11-21T03:46:30;99603.22;;;-0.68;68.06
56241;BME280;42155;53.096;23.226;2023-11-21T03:48:30;99572.69;;;-0.86;68.12
56241;BME280;42155;53.096;23.226;2023-11-21T03:50:31;99598.50;;;-0.80;68.79
56241;BME280;42155;53.096;23.226;2023-11-21T03:52:31;99592.97;;;-0.94;68.37
56241;BME280;42155;53.096;23.226;2023-11-21T03:54:31;99596.44;;;-0.94;68.26
56241;BME280;42155;53.096;23.226;2023-11-21T03:56:32;99621.53;;;-0.91;68.40
56241;BME280;42155;53.096;23.226;2023-11-21T03:58:32;99590.75;;;-1.04;68.78
56241;BME280;42155;53.096;23.226;2023-11-21T04:00:32;99611.66;;;-0.83;68.25
56241;BME280;42155;53.096;23.226;2023-11-21T04:02:33;99608.25;;;-0.85;68.55
56241;BME280;42155;53.096;23.226;2023-11-21T04:04:34;99615.50;;;-0.93;68.18
56241;BME280;42155;53.096;23.226;2023-11-21T04:06:34;99609.06;;;-1.07;68.53
56241;BME280;42155;53.096;23.226;2023-11-21T04:08:34;99614.00;;;-0.99;68.39
56241;BME280;42155;53.096;23.226;2023-11-21T04:10:35;99572.22;;;-1.18;68.26
56241;BME280;42155;53.096;23.226;2023-11-21T04:12:35;99616.53;;;-0.97;68.49
56241;BME280;42155;53.096;23.226;2023-11-21T04:14:36;99609.88;;;-1.05;68.97
56241;BME280;42155;53.096;23.226;2023-11-21T04:16:36;99611.31;;;-0.97;68.14
56241;BME280;42155;53.096;23.226;2023-11-21T04:18:37;99614.63;;;-0.92;68.22
56241;BME280;42155;53.096;23.226;2023-11-21T04:20:37;99614.50;;;-0.89;68.02
56241;BME280;42155;53.096;23.226;2023-11-21T04:22:42;99612.53;;;-0.84;67.78
56241;BME280;42155;53.096;23.226;2023-11-21T04:24:43;99603.97;;;-0.86;68.28
56241;BME280;42155;53.096;23.226;2023-11-21T04:26:44;99620.13;;;-0.78;68.14
56241;BME280;42155;53.096;23.226;2023-11-21T04:28:44;99585.47;;;-1.02;67.72
56241;BME280;42155;53.096;23.226;2023-11-21T04:30:44;99616.25;;;-0.90;67.73
56241;BME280;42155;53.096;23.226;2023-11-21T04:32:45;99614.63;;;-0.92;67.87
56241;BME280;42155;53.096;23.226;2023-11-21T04:34:45;99611.94;;;-0.91;67.69
56241;BME280;42155;53.096;23.226;2023-11-21T04:36:45;99604.91;;;-0.89;67.69
56241;BME280;42155;53.096;23.226;2023-11-21T04:38:46;99607.41;;;-0.86;67.49
56241;BME280;42155;53.096;23.226;2023-11-21T04:40:46;99602.63;;;-0.96;67.91
56241;BME280;42155;53.096;23.226;2023-11-21T04:42:46;99573.16;;;-1.20;67.96
56241;BME280;42155;53.096;23.226;2023-11-21T04:44:47;99609.72;;;-1.00;67.54
56241;BME280;42155;53.096;23.226;2023-11-21T04:46:47;99595.94;;;-1.04;67.88
56241;BME280;42155;53.096;23.226;2023-11-21T04:48:48;99592.22;;;-0.96;67.37
56241;BME280;42155;53.096;23.226;2023-11-21T04:50:48;99580.31;;;-1.04;67.40
56241;BME280;42155;53.096;23.226;2023-11-21T04:52:48;99596.97;;;-1.08;67.32
56241;BME280;42155;53.096;23.226;2023-11-21T04:54:48;99583.47;;;-1.17;68.04
56241;BME280;42155;53.096;23.226;2023-11-21T04:56:49;99594.50;;;-1.11;67.83
56241;BME280;42155;53.096;23.226;2023-11-21T04:58:49;99584.44;;;-1.20;67.42
56241;BME280;42155;53.096;23.226;2023-11-21T05:00:49;99608.31;;;-1.09;67.82
56241;BME280;42155;53.096;23.226;2023-11-21T05:02:50;99604.19;;;-1.14;67.65
56241;BME280;42155;53.096;23.226;2023-11-21T05:04:50;99602.53;;;-1.17;67.99
56241;BME280;42155;53.096;23.226;2023-11-21T05:06:50;99584.84;;;-1.31;67.31
56241;BME280;42155;53.096;23.226;2023-11-21T05:08:51;99621.59;;;-1.16;67.78
56241;BME280;42155;53.096;23.226;2023-11-21T05:10:51;99625.78;;;-1.12;67.53
56241;BME280;42155;53.096;23.226;2023-11-21T05:12:52;99623.09;;;-1.09;67.03
56241;BME280;42155;53.096;23.226;2023-11-21T05:14:52;99623.94;;;-1.09;66.71
56241;BME280;42155;53.096;23.226;2023-11-21T05:16:52;99638.19;;;-0.95;66.90
56241;BME280;42155;53.096;23.226;2023-11-21T05:18:53;99638.94;;;-0.93;66.77
56241;BME280;42155;53.096;23.226;2023-11-21T05:20:53;99633.78;;;-1.17;66.59
56241;BME280;42155;53.096;23.226;2023-11-21T05:22:53;99658.91;;;-1.16;67.08
56241;BME280;42155;53.096;23.226;2023-11-21T05:24:54;99644.19;;;-1.17;66.77
56241;BME280;42155;53.096;23.226;2023-11-21T05:26:54;99628.13;;;-1.28;66.67
56241;BME280;42155;53.096;23.226;2023-11-21T05:28:55;99661.66;;;-1.19;66.27
56241;BME280;42155;53.096;23.226;2023-11-21T05:30:55;99659.25;;;-1.25;66.67
56241;BME280;42155;53.096;23.226;2023-11-21T05:32:56;99661.69;;;-1.20;66.37
56241;BME280;42155;53.096;23.226;2023-11-21T05:34:56;99652.06;;;-1.18;66.57
56241;BME280;42155;53.096;23.226;2023-11-21T05:36:56;99660.28;;;-1.06;66.44
56241;BME280;42155;53.096;23.226;2023-11-21T05:38:57;99675.66;;;-0.99;65.73
56241;BME280;42155;53.096;23.226;2023-11-21T05:40:57;99670.06;;;-1.12;66.32
56241;BME280;42155;53.096;23.226;2023-11-21T05:42:57;99663.44;;;-1.21;66.22
56241;BME280;42155;53.096;23.226;2023-11-21T05:44:57;99643.88;;;-1.31;65.87
56241;BME280;42155;53.096;23.226;2023-11-21T05:46:59;99667.41;;;-1.11;66.31
56241;BME280;42155;53.096;23.226;2023-11-21T05:49:00;99678.50;;;-1.06;65.98
56241;BME280;42155;53.096;23.226;2023-11-21T05:51:00;99677.53;;;-1.03;65.69
56241;BME280;42155;53.096;23.226;2023-11-21T05:53:00;99685.41;;;-1.05;65.79
56241;BME280;42155;53.096;23.226;2023-11-21T05:55:01;99681.13;;;-1.06;65.81
56241;BME280;42155;53.096;23.226;2023-11-21T05:57:01;99693.22;;;-1.05;65.82
56241;BME280;42155;53.096;23.226;2023-11-21T05:59:01;99679.53;;;-1.10;66.09
56241;BME280;42155;53.096;23.226;2023-11-21T06:01:05;99678.63;;;-1.09;65.66
56241;BME280;42155;53.096;23.226;2023-11-21T06:03:05;99678.38;;;-1.03;65.78
56241;BME280;42155;53.096;23.226;2023-11-21T06:05:07;99694.56;;;-0.94;65.48
56241;BME280;42155;53.096;23.226;2023-11-21T06:07:08;99694.75;;;-0.99;65.64
56241;BME280;42155;53.096;23.226;2023-11-21T06:09:08;99698.38;;;-1.03;65.10
56241;BME280;42155;53.096;23.226;2023-11-21T06:11:08;99662.94;;;-1.31;65.73
56241;BME280;42155;53.096;23.226;2023-11-21T06:13:09;99685.56;;;-1.09;65.35
56241;BME280;42155;53.096;23.226;2023-11-21T06:15:10;99704.56;;;-1.06;65.28
56241;BME280;42155;53.096;23.226;2023-11-21T06:17:10;99679.13;;;-1.22;65.81
56241;BME280;42155;53.096;23.226;2023-11-21T06:19:11;99665.59;;;-1.32;65.35
56241;BME280;42155;53.096;23.226;2023-11-21T06:21:11;99699.63;;;-1.13;65.71
56241;BME280;42155;53.096;23.226;2023-11-21T06:23:12;99700.47;;;-1.13;65.88
56241;BME280;42155;53.096;23.226;2023-11-21T06:25:13;99711.28;;;-1.00;65.25
56241;BME280;42155;53.096;23.226;2023-11-21T06:27:13;99685.56;;;-1.09;65.31
56241;BME280;42155;53.096;23.226;2023-11-21T06:29:14;99692.41;;;-1.07;64.91
56241;BME280;42155;53.096;23.226;2023-11-21T06:31:14;99690.56;;;-1.03;65.17
56241;BME280;42155;53.096;23.226;2023-11-21T06:33:14;99702.66;;;-1.02;64.81
56241;BME280;42155;53.096;23.226;2023-11-21T06:35:15;99727.66;;;-0.96;65.04
56241;BME280;42155;53.096;23.226;2023-11-21T06:37:15;99718.59;;;-1.10;65.42
56241;BME280;42155;53.096;23.226;2023-11-21T06:39:16;99721.19;;;-1.10;65.47
56241;BME280;42155;53.096;23.226;2023-11-21T06:41:16;99724.22;;;-0.98;65.48
56241;BME280;42155;53.096;23.226;2023-11-21T06:43:16;99726.81;;;-0.97;65.33
56241;BME280;42155;53.096;23.226;2023-11-21T06:45:17;99726.63;;;-0.92;64.73
56241;BME280;42155;53.096;23.226;2023-11-21T06:47:18;99733.41;;;-0.88;64.82
56241;BME280;42155;53.096;23.226;2023-11-21T06:49:18;99730.94;;;-0.91;64.63
56241;BME280;42155;53.096;23.226;2023-11-21T06:51:18;99730.09;;;-0.92;64.53
56241;BME280;42155;53.096;23.226;2023-11-21T06:53:19;99741.97;;;-0.85;65.05
56241;BME280;42155;53.096;23.226;2023-11-21T06:55:19;99729.28;;;-0.94;64.23
56241;BME280;42155;53.096;23.226;2023-11-21T06:57:19;99736.34;;;-0.97;64.42
56241;BME280;42155;53.096;23.226;2023-11-21T06:59:20;99742.38;;;-0.95;65.08
56241;BME280;42155;53.096;23.226;2023-11-21T07:01:20;99740.59;;;-0.95;64.49
56241;BME280;42155;53.096;23.226;2023-11-21T07:03:20;99738.28;;;-1.03;64.44
56241;BME280;42155;53.096;23.226;2023-11-21T07:05:21;99743.72;;;-1.09;65.20
56241;BME280;42155;53.096;23.226;2023-11-21T07:07:22;99737.25;;;-1.22;64.57
56241;BME280;42155;53.096;23.226;2023-11-21T07:09:22;99703.06;;;-1.36;64.86
56241;BME280;42155;53.096;23.226;2023-11-21T07:11:22;99749.50;;;-1.00;64.96
56241;BME280;42155;53.096;23.226;2023-11-21T07:13:23;99749.34;;;-0.96;64.50
56241;BME280;42155;53.096;23.226;2023-11-21T07:15:23;99740.78;;;-0.99;64.73
56241;BME280;42155;53.096;23.226;2023-11-21T07:17:24;99755.38;;;-0.95;64.84
56241;BME280;42155;53.096;23.226;2023-11-21T07:19:24;99729.09;;;-1.13;64.68
56241;BME280;42155;53.096;23.226;2023-11-21T07:21:24;99753.78;;;-0.99;64.54
56241;BME280;42155;53.096;23.226;2023-11-21T07:23:25;99745.31;;;-1.05;64.85
56241;BME280;42155;53.096;23.226;2023-11-21T07:25:25;99751.81;;;-0.93;64.58
56241;BME280;42155;53.096;23.226;2023-11-21T07:27:25;99761.84;;;-0.82;64.14
56241;BME280;42155;53.096;23.226;2023-11-21T07:29:26;99760.03;;;-0.80;64.61
56241;BME280;42155;53.096;23.226;2023-11-21T07:31:27;99742.25;;;-0.92;64.17
56241;BME280;42155;53.096;23.226;2023-11-21T07:33:27;99766.88;;;-0.78;64.49
56241;BME280;42155;53.096;23.226;2023-11-21T07:35:27;99766.81;;;-0.76;64.62
56241;BME280;42155;53.096;23.226;2023-11-21T07:37:28;99765.00;;;-0.74;64.65
56241;BME280;42155;53.096;23.226;2023-11-21T07:39:28;99756.50;;;-0.79;63.73
56241;BME280;42155;53.096;23.226;2023-11-21T07:41:28;99778.22;;;-0.79;64.15
56241;BME280;42155;53.096;23.226;2023-11-21T07:43:29;99768.19;;;-0.89;63.90
56241;BME280;42155;53.096;23.226;2023-11-21T07:45:29;99775.16;;;-0.90;64.04
56241;BME280;42155;53.096;23.226;2023-11-21T07:47:29;99770.69;;;-0.86;63.89
56241;BME280;42155;53.096;23.226;2023-11-21T07:49:30;99773.00;;;-0.79;63.99
56241;BME280;42155;53.096;23.226;2023-11-21T07:51:30;99760.53;;;-0.70;64.05
56241;BME280;42155;53.096;23.226;2023-11-21T07:53:31;99764.53;;;-0.62;64.41
56241;BME280;42155;53.096;23.226;2023-11-21T07:55:31;99767.97;;;-0.60;64.04
56241;BME280;42155;53.096;23.226;2023-11-21T07:57:31;99768.81;;;-0.59;63.78
56241;BME280;42155;53.096;23.226;2023-11-21T07:59:32;99749.38;;;-0.74;64.35
56241;BME280;42155;53.096;23.226;2023-11-21T08:01:32;99764.78;;;-0.68;63.96
56241;BME280;42155;53.096;23.226;2023-11-21T08:03:32;99766.38;;;-0.64;63.82
56241;BME280;42155;53.096;23.226;2023-11-21T08:05:33;99758.06;;;-0.73;64.08
56241;BME280;42155;53.096;23.226;2023-11-21T08:07:33;99765.75;;;-0.70;64.28
56241;BME280;42155;53.096;23.226;2023-11-21T08:09:34;99764.16;;;-0.74;63.95
56241;BME280;42155;53.096;23.226;2023-11-21T08:11:34;99778.72;;;-0.69;64.44
56241;BME280;42155;53.096;23.226;2023-11-21T08:13:34;99778.03;;;-0.74;63.79
56241;BME280;42155;53.096;23.226;2023-11-21T08:15:35;99768.75;;;-0.81;64.09
56241;BME280;42155;53.096;23.226;2023-11-21T08:17:35;99779.75;;;-0.73;64.37
56241;BME280;42155;53.096;23.226;2023-11-21T08:19:36;99784.03;;;-0.72;64.20
56241;BME280;42155;53.096;23.226;2023-11-21T08:21:36;99759.63;;;-0.93;63.87
56241;BME280;42155;53.096;23.226;2023-11-21T08:23:37;99788.69;;;-0.80;64.33
56241;BME280;42155;53.096;23.226;2023-11-21T08:25:37;99789.50;;;-0.78;64.32
56241;BME280;42155;53.096;23.226;2023-11-21T08:27:37;99799.78;;;-0.75;64.17
56241;BME280;42155;53.096;23.226;2023-11-21T08:29:38;99794.69;;;-0.78;64.00
56241;BME280;42155;53.096;23.226;2023-11-21T08:31:38;99798.41;;;-0.85;63.93
56241;BME280;42155;53.096;23.226;2023-11-21T08:33:38;99801.66;;;-0.79;64.20
56241;BME280;42155;53.096;23.226;2023-11-21T08:35:39;99786.53;;;-0.92;63.97
56241;BME280;42155;53.096;23.226;2023-11-21T08:37:39;99772.13;;;-1.03;64.00
56241;BME280;42155;53.096;23.226;2023-11-21T08:39:39;99780.91;;;-1.05;64.34
56241;BME280;42155;53.096;23.226;2023-11-21T08:41:40;99779.09;;;-1.03;64.13
56241;BME280;42155;53.096;23.226;2023-11-21T08:43:40;99791.53;;;-0.86;64.09
56241;BME280;42155;53.096;23.226;2023-11-21T08:45:40;99799.16;;;-0.82;64.14
56241;BME280;42155;53.096;23.226;2023-11-21T08:47:41;99793.72;;;-0.75;64.09
56241;BME280;42155;53.096;23.226;2023-11-21T08:49:41;99799.78;;;-0.75;64.13
56241;BME280;42155;53.096;23.226;2023-11-21T08:51:41;99797.25;;;-0.77;63.79
56241;BME280;42155;53.096;23.226;2023-11-21T08:53:41;99801.72;;;-0.80;63.71
56241;BME280;42155;53.096;23.226;2023-11-21T08:55:42;99775.16;;;-0.90;63.95
56241;BME280;42155;53.096;23.226;2023-11-21T08:57:44;99794.81;;;-0.81;64.16
56241;BME280;42155;53.096;23.226;2023-11-21T08:59:44;99800.41;;;-0.68;64.38
56241;BME280;42155;53.096;23.226;2023-11-21T09:01:44;99794.13;;;-0.63;64.15
56241;BME280;42155;53.096;23.226;2023-11-21T09:03:45;99801.84;;;-0.60;63.90
56241;BME280;42155;53.096;23.226;2023-11-21T09:05:45;99799.22;;;-0.60;63.43
56241;BME280;42155;53.096;23.226;2023-11-21T09:07:45;99803.53;;;-0.59;63.73
56241;BME280;42155;53.096;23.226;2023-11-21T09:09:49;99796.16;;;-0.71;63.36
56241;BME280;42155;53.096;23.226;2023-11-21T09:11:49;99812.94;;;-0.55;63.77
56241;BME280;42155;53.096;23.226;2023-11-21T09:13:49;99812.81;;;-0.52;63.26
56241;BME280;42155;53.096;23.226;2023-11-21T09:15:50;99803.19;;;-0.49;63.40
56241;BME280;42155;53.096;23.226;2023-11-21T09:17:50;99803.19;;;-0.49;63.06
56241;BME280;42155;53.096;23.226;2023-11-21T09:19:50;99819.50;;;-0.44;63.07
56241;BME280;42155;53.096;23.226;2023-11-21T09:21:51;99823.88;;;-0.45;63.47
56241;BME280;42155;53.096;23.226;2023-11-21T09:23:51;99824.72;;;-0.44;63.52
56241;BME280;42155;53.096;23.226;2023-11-21T09:25:51;99812.59;;;-0.45;63.19
56241;BME280;42155;53.096;23.226;2023-11-21T09:27:52;99745.97;;;-0.99;63.11
56241;BME280;42155;53.096;23.226;2023-11-21T09:29:52;99821.03;;;-0.62;62.87
56241;BME280;42155;53.096;23.226;2023-11-21T09:31:53;99819.16;;;-0.59;62.97
56241;BME280;42155;53.096;23.226;2023-11-21T09:33:53;99812.81;;;-0.52;63.42
56241;BME280;42155;53.096;23.226;2023-11-21T09:35:53;99789.59;;;-0.58;62.96
56241;BME280;42155;53.096;23.226;2023-11-21T09:37:54;99816.66;;;-0.38;63.24
56241;BME280;42155;53.096;23.226;2023-11-21T09:39:54;99815.06;;;-0.42;62.81
56241;BME280;42155;53.096;23.226;2023-11-21T09:42:10;99829.69;;;-0.38;63.13
56241;BME280;42155;53.096;23.226;2023-11-21T09:44:13;99830.53;;;-0.38;63.02
56241;BME280;42155;53.096;23.226;2023-11-21T09:46:14;99804.88;;;-0.48;62.80
56241;BME280;42155;53.096;23.226;2023-11-21T09:48:15;99815.88;;;-0.40;62.48
56241;BME280;42155;53.096;23.226;2023-11-21T09:50:17;99816.44;;;-0.32;62.44
56241;BME280;42155;53.096;23.226;2023-11-21T09:52:22;99826.97;;;-0.35;63.08
56241;BME280;42155;53.096;23.226;2023-11-21T09:54:25;99834.00;;;-0.37;62.45
56241;BME280;42155;53.096;23.226;2023-11-21T09:56:25;99826.50;;;-0.46;62.74
56241;BME280;42155;53.096;23.226;2023-11-21T09:58:27;99782.34;;;-0.73;62.54
56241;BME280;42155;53.096;23.226;2023-11-21T10:00:27;99827.50;;;-0.49;62.62
56241;BME280;42155;53.096;23.226;2023-11-21T10:02:28;99838.75;;;-0.48;62.53
56241;BME280;42155;53.096;23.226;2023-11-21T10:04:28;99840.41;;;-0.46;62.71
56241;BME280;42155;53.096;23.226;2023-11-21T10:06:30;99831.91;;;-0.51;62.24
56241;BME280;42155;53.096;23.226;2023-11-21T10:08:31;99844.56;;;-0.40;62.58
56241;BME280;42155;53.096;23.226;2023-11-21T10:10:32;99835.06;;;-0.43;61.85
56241;BME280;42155;53.096;23.226;2023-11-21T10:12:33;99824.25;;;-0.56;61.95
56241;BME280;42155;53.096;23.226;2023-11-21T10:14:37;99836.91;;;-0.45;62.43
56241;BME280;42155;53.096;23.226;2023-11-21T10:16:41;99848.09;;;-0.43;62.47
56241;BME280;42155;53.096;23.226;2023-11-21T10:18:41;99841.19;;;-0.44;62.56
56241;BME280;42155;53.096;23.226;2023-11-21T10:20:42;99848.78;;;-0.38;62.51
56241;BME280;42155;53.096;23.226;2023-11-21T10:22:43;99845.47;;;-0.41;62.16
56241;BME280;42155;53.096;23.226;2023-11-21T10:24:43;99822.34;;;-0.50;61.88
56241;BME280;42155;53.096;23.226;2023-11-21T10:26:43;99848.41;;;-0.27;62.46
56241;BME280;42155;53.096;23.226;2023-11-21T10:30:57;99819.16;;;-0.35;61.61
56241;BME280;42155;53.096;23.226;2023-11-21T10:33:00;99847.22;;;-0.18;61.34